createdAt,value
2018-08-30T00:08:26.318Z,10.70
2018-08-30T00:11:11.013Z,11.60
2018-08-30T00:13:50.324Z,12.25
2018-08-30T00:16:40.505Z,10.23
2018-08-30T01:14:38.935Z,10.58
2018-08-30T01:17:16.908Z,13.08
2018-08-30T01:19:58.752Z,11.93
2018-08-30T01:22:37.008Z,10.28
2018-08-30T01:25:09.671Z,11.38
2018-08-30T01:27:58.631Z,10.85
2018-08-30T01:30:33.762Z,13.90
2018-08-30T01:33:22.539Z,11.53
2018-08-30T01:36:05.285Z,14.07
2018-08-30T01:41:43.307Z,12.20
2018-08-30T01:44:25.728Z,15.80
2018-08-30T01:47:00.386Z,13.35
2018-08-30T01:52:33.793Z,13.60
2018-08-30T02:00:51.760Z,16.57
2018-08-30T02:03:23.861Z,16.27
2018-08-30T02:05:56.482Z,16.60
2018-08-30T02:08:27.860Z,16.65
2018-08-30T02:10:58.507Z,17.45
2018-08-30T02:13:30.720Z,17.40
2018-08-30T02:16:01.037Z,16.57
2018-08-30T02:18:31.672Z,17.92
2018-08-30T02:21:03.983Z,17.98
2018-08-30T02:23:34.172Z,14.70
2018-08-30T02:26:04.219Z,18.75
2018-08-30T02:28:35.176Z,17.40
2018-08-30T02:31:07.122Z,15.10
2018-08-30T02:33:37.192Z,17.87
2018-08-30T02:36:10.290Z,24.07
2018-08-30T02:38:40.419Z,16.50
2018-08-30T02:41:11.043Z,19.45
2018-08-30T02:43:42.152Z,18.12
2018-08-30T02:46:12.403Z,54.13
2018-08-30T02:48:43.250Z,20.80
2018-08-30T02:51:14.798Z,21.73
2018-08-30T02:53:48.193Z,17.75
2018-08-30T02:56:18.512Z,22.02
2018-08-30T02:58:53.144Z,19.70
2018-08-30T03:01:25.559Z,19.55
2018-08-30T03:03:55.425Z,21.60
2018-08-30T03:06:34.844Z,17.77
2018-08-30T03:09:09.750Z,20.97
2018-08-30T03:11:41.100Z,21.57
2018-08-30T03:14:14.750Z,21.73
2018-08-30T03:16:45.752Z,21.33
2018-08-30T03:19:18.779Z,23.70
2018-08-30T03:21:50.228Z,21.05
2018-08-30T03:24:21.614Z,20.92
2018-08-30T03:28:05.673Z,22.42
2018-08-30T03:30:52.107Z,23.30
2018-08-30T03:33:33.726Z,19.57
2018-08-30T03:36:08.391Z,20.65
2018-08-30T03:39:08.705Z,19.95
2018-08-30T03:41:50.070Z,20.48
2018-08-30T03:44:32.687Z,20.30
2018-08-30T03:47:20.713Z,17.07
2018-08-30T03:55:47.677Z,24.20
2018-08-30T03:58:24.889Z,24.30
2018-08-30T04:01:28.942Z,25.35
2018-08-30T04:04:30.151Z,25.02
2018-08-30T04:07:06.074Z,24.00
2018-08-30T04:09:49.109Z,24.63
2018-08-30T04:25:57.247Z,31.80
2018-08-30T04:28:30.695Z,28.05
2018-08-30T04:31:01.277Z,25.77
2018-08-30T04:33:39.852Z,25.90
2018-08-30T04:36:10.349Z,24.82
2018-08-30T04:38:40.952Z,21.93
2018-08-30T04:41:14.152Z,21.95
2018-08-30T04:43:47.257Z,24.10
2018-08-30T04:46:21.074Z,25.52
2018-08-30T04:57:56.303Z,13.95
2018-08-30T05:00:43.976Z,20.72
2018-08-30T05:03:19.566Z,21.48
2018-08-30T05:05:54.981Z,17.70
2018-08-30T05:08:27.668Z,18.48
2018-08-30T05:11:00.116Z,18.02
2018-08-30T05:13:46.333Z,21.70
2018-08-30T05:16:22.137Z,20.62
2018-08-30T05:21:57.355Z,32.40
2018-08-30T05:24:33.920Z,29.48
2018-08-30T05:27:07.502Z,19.75
2018-08-30T05:29:37.985Z,20.37
2018-08-30T05:32:10.307Z,18.30
2018-08-30T05:34:41.098Z,17.95
2018-08-30T05:37:13.008Z,21.42
2018-08-30T05:39:45.453Z,17.77
2018-08-30T05:42:18.041Z,20.70
2018-08-30T05:44:53.408Z,20.37
2018-08-30T05:47:38.731Z,17.12
2018-08-30T05:50:13.400Z,16.77
2018-08-30T05:52:56.752Z,17.82
2018-08-30T05:55:42.579Z,16.30
2018-08-30T06:01:29.159Z,14.78
2018-08-30T06:04:26.414Z,17.57
2018-08-30T06:10:04.293Z,17.07
2018-08-30T06:15:33.909Z,19.67
2018-08-30T06:18:19.537Z,19.70
2018-08-30T06:33:22.661Z,19.12
2018-08-30T06:36:05.374Z,18.23
2018-08-30T06:41:53.254Z,19.85
2018-08-30T07:15:10.180Z,18.17
2018-08-30T07:17:46.114Z,17.73
2018-08-30T07:20:17.155Z,18.82
2018-08-30T07:25:54.329Z,21.10
2018-08-30T07:28:27.175Z,18.40
2018-08-30T07:30:57.693Z,18.90
2018-08-30T07:33:27.559Z,16.60
2018-08-30T07:35:57.957Z,18.60
2018-08-30T07:38:31.678Z,18.67
2018-08-30T07:41:05.073Z,18.55
2018-08-30T07:43:36.258Z,17.02
2018-08-30T07:46:07.308Z,16.23
2018-08-30T07:48:39.322Z,15.65
2018-08-30T07:51:15.511Z,16.93
2018-08-30T07:53:46.021Z,17.55
2018-08-30T07:56:19.440Z,15.18
2018-08-30T07:58:49.509Z,17.12
2018-08-30T08:01:19.759Z,14.23
2018-08-30T08:03:52.191Z,16.30
2018-08-30T08:06:22.476Z,15.05
2018-08-30T08:08:52.693Z,17.57
2018-08-30T08:11:23.472Z,16.30
2018-08-30T08:13:54.389Z,14.20
2018-08-30T08:16:25.249Z,16.73
2018-08-30T08:18:56.022Z,15.03
2018-08-30T08:21:26.302Z,14.40
2018-08-30T08:23:56.528Z,15.80
2018-08-30T08:26:26.812Z,13.60
2018-08-30T08:28:56.916Z,17.05
2018-08-30T08:31:31.513Z,14.25
2018-08-30T08:34:01.902Z,14.33
2018-08-30T08:36:33.846Z,15.98
2018-08-30T08:39:05.183Z,16.23
2018-08-30T08:41:35.408Z,18.50
2018-08-30T08:44:06.547Z,15.10
2018-08-30T08:46:37.872Z,19.45
2018-08-30T08:49:09.012Z,17.92
2018-08-30T08:51:39.655Z,16.42
2018-08-30T08:54:10.032Z,14.85
2018-08-30T08:56:40.451Z,19.35
2018-08-30T08:59:10.835Z,19.98
2018-08-30T09:01:41.378Z,17.82
2018-08-30T09:04:12.992Z,15.95
2018-08-30T09:06:43.483Z,16.30
2018-08-30T09:09:14.392Z,17.62
2018-08-30T09:11:45.076Z,16.27
2018-08-30T09:14:15.383Z,16.37
2018-08-30T09:16:45.859Z,19.32
2018-08-30T09:19:17.908Z,16.87
2018-08-30T09:21:48.236Z,17.42
2018-08-30T09:24:19.247Z,21.82
2018-08-30T09:26:49.375Z,18.23
2018-08-30T09:29:20.176Z,17.90
2018-08-30T09:31:51.598Z,16.37
2018-08-30T09:34:24.213Z,21.25
2018-08-30T09:36:55.211Z,14.55
2018-08-30T09:39:25.378Z,10.15
2018-08-30T09:41:55.486Z,11.90
2018-08-30T09:44:26.095Z,9.15
2018-08-30T09:46:56.346Z,11.60
2018-08-30T09:49:26.649Z,8.30
2018-08-30T09:51:58.481Z,8.80
2018-08-30T09:54:31.067Z,8.18
2018-08-30T09:57:03.591Z,8.65
2018-08-30T09:59:35.609Z,7.10
2018-08-30T10:02:11.041Z,9.70
2018-08-30T10:04:44.270Z,9.50
2018-08-30T10:07:18.740Z,10.38
2018-08-30T10:09:54.092Z,11.25
2018-08-30T10:12:28.595Z,14.60
2018-08-30T10:15:03.596Z,9.70
2018-08-30T10:17:34.817Z,7.60
2018-08-30T10:20:06.307Z,8.13
2018-08-30T10:22:37.753Z,7.70
2018-08-30T10:25:12.689Z,6.67
2018-08-30T10:27:44.177Z,3.00
2018-08-30T10:30:16.111Z,8.50
2018-08-30T10:32:48.843Z,7.17
2018-08-30T10:35:20.074Z,5.87
2018-08-30T10:37:51.398Z,4.65
2018-08-30T10:40:23.367Z,4.47
2018-08-30T10:42:54.726Z,3.40
2018-08-30T10:45:29.092Z,2.95
2018-08-30T10:48:00.558Z,2.50
2018-08-30T10:50:32.299Z,2.22
2018-08-30T10:53:06.487Z,2.27
2018-08-30T10:55:38.871Z,2.67
2018-08-30T10:58:10.094Z,3.12
2018-08-30T11:00:43.580Z,3.00
2018-08-30T11:03:16.014Z,3.08
2018-08-30T11:05:54.329Z,4.08
2018-08-30T11:11:09.663Z,3.37
2018-08-30T11:13:42.199Z,3.42
2018-08-30T11:16:15.364Z,5.25
2018-08-30T11:18:47.936Z,4.72
2018-08-30T11:21:19.027Z,5.50
2018-08-30T11:23:49.596Z,7.65
2018-08-30T11:26:19.918Z,6.00
2018-08-30T11:28:51.813Z,8.58
2018-08-30T11:31:22.786Z,10.08
2018-08-30T11:33:56.203Z,8.53
2018-08-30T11:36:26.525Z,11.10
2018-08-30T11:38:59.937Z,7.12
2018-08-30T11:41:31.057Z,12.33
2018-08-30T11:44:01.926Z,13.13
2018-08-30T11:46:34.514Z,9.05
2018-08-30T11:49:07.591Z,12.68
2018-08-30T11:51:38.400Z,11.28
2018-08-30T11:54:09.835Z,9.13
2018-08-30T11:56:43.249Z,11.73
2018-08-30T11:59:15.075Z,10.80
2018-08-30T12:01:46.514Z,11.28
2018-08-30T12:04:20.955Z,14.15
2018-08-30T12:06:52.069Z,13.32
2018-08-30T12:09:23.557Z,11.63
2018-08-30T12:12:00.303Z,11.22
2018-08-30T12:14:36.647Z,10.68
2018-08-30T12:17:06.899Z,10.75
2018-08-30T12:19:36.956Z,9.55
2018-08-30T12:22:07.595Z,11.70
2018-08-30T12:24:38.017Z,12.30
2018-08-30T12:27:08.162Z,11.12
2018-08-30T12:29:38.465Z,10.98
2018-08-30T12:32:08.820Z,7.58
2018-08-30T12:34:42.971Z,10.45
2018-08-30T12:37:13.859Z,13.48
2018-08-30T12:39:44.254Z,10.72
2018-08-30T12:42:14.513Z,8.15
2018-08-30T12:44:44.265Z,11.45
2018-08-30T12:47:15.188Z,11.88
2018-08-30T12:49:45.308Z,9.03
2018-08-30T12:52:15.414Z,10.15
2018-08-30T12:54:45.652Z,6.05
2018-08-30T12:57:15.749Z,6.80
2018-08-30T12:59:45.909Z,11.15
2018-08-30T13:02:16.780Z,5.10
2018-08-30T13:04:47.883Z,9.80
2018-08-30T13:07:18.477Z,7.85
2018-08-30T13:09:50.509Z,6.03
2018-08-30T13:12:20.702Z,5.67
2018-08-30T13:14:51.340Z,3.52
2018-08-30T13:17:21.851Z,7.40
2018-08-30T13:19:55.263Z,8.85
2018-08-30T13:22:26.117Z,6.55
2018-08-30T13:24:56.395Z,6.72
2018-08-30T13:27:26.705Z,8.78
2018-08-30T13:29:57.221Z,6.35
2018-08-30T13:32:27.559Z,6.90
2018-08-30T13:34:59.035Z,8.63
2018-08-30T13:37:29.853Z,7.92
2018-08-30T13:40:00.016Z,8.78
2018-08-30T13:42:30.520Z,7.45
2018-08-30T13:45:00.662Z,6.90
2018-08-30T13:47:31.911Z,8.68
2018-08-30T13:50:06.443Z,10.13
2018-08-30T13:52:36.447Z,11.15
2018-08-30T13:55:10.068Z,10.80
2018-08-30T13:57:40.482Z,11.95
2018-08-30T14:00:13.261Z,11.60
2018-08-30T14:02:43.402Z,11.48
2018-08-30T14:05:13.441Z,12.03
2018-08-30T14:07:44.311Z,9.60
2018-08-30T14:10:15.001Z,14.40
2018-08-30T14:12:45.039Z,11.43
2018-08-30T14:15:16.506Z,12.35
2018-08-30T14:17:47.323Z,12.23
2018-08-30T14:20:19.025Z,10.28
2018-08-30T14:22:49.978Z,15.60
2018-08-30T14:25:20.070Z,9.05
2018-08-30T14:27:51.975Z,11.53
2018-08-30T14:30:22.544Z,12.10
2018-08-30T14:32:52.865Z,10.15
2018-08-30T14:35:24.562Z,13.18
2018-08-30T14:37:57.137Z,15.70
2018-08-30T14:40:27.808Z,12.63
2018-08-30T14:42:58.545Z,10.72
2018-08-30T14:45:28.807Z,14.25
2018-08-30T14:48:00.238Z,12.00
2018-08-30T14:50:31.694Z,9.05
2018-08-30T14:53:02.371Z,13.10
2018-08-30T14:55:35.004Z,14.25
2018-08-30T14:58:07.173Z,17.40
2018-08-30T15:00:39.104Z,15.03
2018-08-30T15:03:10.072Z,12.43
2018-08-30T15:08:32.661Z,13.20
2018-08-30T15:11:03.441Z,11.10
2018-08-30T15:13:39.550Z,10.23
2018-08-30T15:19:21.812Z,11.45
2018-08-30T15:21:54.443Z,12.45
2018-08-30T15:24:25.605Z,12.03
2018-08-30T15:26:58.049Z,11.45
2018-08-30T15:32:16.744Z,11.78
2018-08-30T15:34:50.216Z,7.47
2018-08-30T15:37:32.227Z,7.12
2018-08-30T15:40:04.832Z,8.23
2018-08-30T15:42:38.998Z,9.45
2018-08-30T15:45:12.613Z,6.17
2018-08-30T15:47:48.374Z,9.25
2018-08-30T15:50:21.373Z,8.75
2018-08-30T15:52:52.343Z,8.45
2018-08-30T15:55:26.649Z,8.88
2018-08-30T15:57:58.503Z,7.65
2018-08-30T16:00:42.673Z,7.40
2018-08-30T16:03:29.150Z,8.75
2018-08-30T16:06:04.704Z,12.43
2018-08-30T16:08:38.965Z,9.60
2018-08-30T16:11:12.994Z,58.00
2018-08-30T16:13:43.986Z,9.83
2018-08-30T16:16:20.114Z,8.20
2018-08-30T16:18:52.627Z,6.00
2018-08-30T16:21:24.308Z,6.75
2018-08-30T16:23:56.060Z,8.93
2018-08-30T16:26:29.638Z,7.70
2018-08-30T16:29:05.706Z,8.55
2018-08-30T16:31:38.686Z,7.87
2018-08-30T16:34:12.057Z,9.55
2018-08-30T16:36:47.920Z,9.30
2018-08-30T16:39:21.139Z,6.85
2018-08-30T16:41:53.784Z,6.25
2018-08-30T16:44:26.597Z,10.68
2018-08-30T16:47:07.885Z,9.63
2018-08-30T16:49:39.623Z,9.08
2018-08-30T16:52:11.626Z,9.33
2018-08-30T16:54:42.858Z,9.73
2018-08-30T16:57:16.959Z,7.30
2018-08-30T16:59:59.080Z,10.40
2018-08-30T17:02:40.566Z,11.15
2018-08-30T17:08:32.840Z,11.90
2018-08-30T17:11:18.330Z,10.08
2018-08-30T17:14:18.190Z,11.50
2018-08-30T17:16:49.844Z,10.90
2018-08-30T17:19:28.608Z,10.53
2018-08-30T17:22:05.578Z,9.00
2018-08-30T17:24:36.542Z,11.78
2018-08-30T17:27:14.378Z,12.53
2018-08-30T17:29:59.071Z,11.65
2018-08-30T17:32:33.942Z,10.53
2018-08-30T17:35:09.953Z,9.00
2018-08-30T17:37:42.933Z,10.70
2018-08-30T17:40:14.579Z,12.98
2018-08-30T17:42:55.425Z,11.28
2018-08-30T17:45:29.648Z,9.75
2018-08-30T17:48:04.089Z,9.65
2018-08-30T17:50:36.953Z,10.68
2018-08-30T17:53:10.836Z,9.65
2018-08-30T17:55:43.025Z,9.35
2018-08-30T18:01:27.009Z,9.93
2018-08-30T18:04:16.539Z,7.42
2018-08-30T18:09:48.897Z,8.85
2018-08-30T18:15:16.773Z,9.30
2018-08-30T18:17:51.304Z,10.05
2018-08-30T18:20:23.447Z,6.17
2018-08-30T18:23:11.490Z,8.78
2018-08-30T18:25:43.868Z,9.15
2018-08-30T18:28:22.599Z,5.95
2018-08-30T18:30:55.219Z,10.53
2018-08-30T18:33:28.378Z,8.13
2018-08-30T18:36:09.336Z,6.28
2018-08-30T18:38:45.140Z,6.47
2018-08-30T18:41:19.250Z,6.03
2018-08-30T18:43:50.031Z,8.05
2018-08-30T18:46:24.808Z,7.20
2018-08-30T18:48:58.723Z,8.50
2018-08-30T18:51:30.582Z,6.50
2018-08-30T18:54:01.318Z,7.25
2018-08-30T18:56:38.597Z,11.30
2018-08-30T18:59:12.206Z,6.70
2018-08-30T19:01:51.637Z,7.42
2018-08-30T19:04:35.611Z,7.75
2018-08-30T19:09:54.799Z,8.95
2018-08-30T19:15:12.533Z,7.15
2018-08-30T19:17:52.748Z,7.33
2018-08-30T19:20:35.246Z,6.87
2018-08-30T19:23:07.822Z,7.03
2018-08-30T19:28:24.300Z,5.92
2018-08-30T19:31:02.902Z,8.10
2018-08-30T19:33:38.694Z,9.65
2018-08-30T19:36:20.091Z,6.30
2018-08-30T19:39:17.310Z,8.43
2018-08-30T19:42:00.086Z,7.17
2018-08-30T19:44:33.439Z,7.35
2018-08-30T19:47:04.122Z,4.25
2018-08-30T19:49:35.447Z,6.72
2018-08-30T19:52:06.321Z,7.75
2018-08-30T19:54:37.055Z,7.65
2018-08-30T19:57:08.289Z,6.90
2018-08-30T19:59:38.749Z,10.65
2018-08-30T20:02:08.907Z,2.20
2018-08-30T20:04:39.228Z,9.35
2018-08-30T20:07:10.418Z,6.35
2018-08-30T20:09:42.551Z,4.83
2018-08-30T20:12:12.886Z,7.10
2018-08-30T20:14:43.213Z,8.13
2018-08-30T20:17:14.241Z,7.12
2018-08-30T20:19:52.552Z,9.18
2018-08-30T20:28:06.997Z,5.67
2018-08-30T20:30:38.490Z,8.63
2018-08-30T20:33:09.055Z,5.58
2018-08-30T20:35:40.611Z,10.13
2018-08-30T20:38:17.206Z,7.58
2018-08-30T20:40:49.213Z,8.78
2018-08-30T20:46:13.006Z,5.05
2018-08-30T20:48:48.134Z,9.43
2018-08-30T20:51:20.559Z,6.05
2018-08-30T20:53:55.049Z,3.22
2018-08-30T20:56:29.080Z,6.00
2018-08-30T20:59:00.014Z,7.50
2018-08-30T21:01:30.342Z,4.28
2018-08-30T21:04:03.745Z,7.80
2018-08-30T21:06:37.161Z,7.92
2018-08-30T21:09:13.089Z,5.62
2018-08-30T21:11:43.514Z,6.40
2018-08-30T21:14:13.901Z,6.65
2018-08-30T21:16:45.239Z,4.60
2018-08-30T21:19:15.924Z,6.47
2018-08-30T21:21:46.754Z,8.33
2018-08-30T21:34:07.880Z,10.82
2018-08-30T21:36:57.724Z,6.00
2018-08-30T21:39:30.420Z,5.58
2018-08-30T21:42:05.092Z,6.12
2018-08-30T21:50:40.515Z,7.62
2018-08-30T21:53:14.350Z,8.73
2018-08-30T21:55:47.708Z,7.00
2018-08-30T21:58:17.978Z,9.08
2018-08-30T22:00:48.162Z,5.03
2018-08-30T22:03:18.285Z,5.08
2018-08-30T22:05:48.501Z,6.22
2018-08-30T22:08:18.823Z,10.30
2018-08-30T22:10:49.118Z,5.40
2018-08-30T22:13:19.310Z,4.97
2018-08-30T22:15:52.253Z,8.93
2018-08-30T22:18:22.409Z,3.62
2018-08-30T22:20:56.793Z,7.75
2018-08-30T22:23:28.138Z,7.55
2018-08-30T22:25:58.770Z,7.58
2018-08-30T22:28:30.695Z,7.33
2018-08-30T22:31:00.980Z,7.00
2018-08-30T22:33:31.192Z,5.92
2018-08-30T22:36:04.300Z,6.78
2018-08-30T22:38:38.773Z,5.20
2018-08-30T22:41:11.285Z,5.00
2018-08-30T22:43:44.888Z,6.45
2018-08-30T22:46:19.507Z,9.30
2018-08-30T22:50:08.572Z,9.13
2018-08-30T22:52:42.998Z,9.73
2018-08-30T22:55:13.938Z,6.35
2018-08-30T22:57:46.391Z,5.20
2018-08-30T23:00:16.835Z,10.55
2018-08-30T23:02:47.205Z,5.80
2018-08-30T23:05:17.281Z,5.78
2018-08-30T23:07:49.658Z,8.35
2018-08-30T23:10:21.314Z,5.50
2018-08-30T23:12:52.118Z,8.58
2018-08-30T23:15:22.570Z,5.90
2018-08-30T23:17:53.713Z,6.75
2018-08-30T23:20:24.351Z,6.40
2018-08-30T23:22:57.236Z,8.13
2018-08-30T23:25:30.433Z,6.90
2018-08-30T23:28:00.751Z,5.55
2018-08-30T23:30:31.132Z,5.97
2018-08-30T23:33:03.669Z,7.42
2018-08-30T23:35:34.160Z,4.78
2018-08-30T23:38:04.943Z,8.55
2018-08-30T23:40:35.793Z,8.00
2018-08-30T23:43:06.108Z,7.05
2018-08-30T23:45:38.366Z,8.55
2018-08-30T23:48:11.199Z,7.05
2018-08-30T23:50:42.889Z,9.08
2018-08-30T23:53:14.459Z,9.03
2018-08-30T23:55:48.087Z,6.17
2018-08-30T23:58:35.339Z,7.58
